sensor_id;sensor_type;location;lat;lon;timestamp;P1;durP1;ratioP1;P2;durP2;ratioP2
45254;SDS011;30989;52.078;21.014;2022-07-06T00:01:21;7.65;;;5.22;;
45254;SDS011;30989;52.078;21.014;2022-07-06T00:03:50;9.52;;;6.72;;
45254;SDS011;30989;52.078;21.014;2022-07-06T00:06:15;9.65;;;5.45;;
45254;SDS011;30989;52.078;21.014;2022-07-06T00:08:42;8.45;;;5.30;;
45254;SDS011;30989;52.078;21.014;2022-07-06T00:11:08;6.13;;;4.22;;
45254;SDS011;30989;52.078;21.014;2022-07-06T00:13:34;8.88;;;5.63;;
45254;SDS011;30989;52.078;21.014;2022-07-06T00:15:59;5.55;;;4.53;;
45254;SDS011;30989;52.078;21.014;2022-07-06T00:18:25;7.50;;;5.22;;
45254;SDS011;30989;52.078;21.014;2022-07-06T00:20:50;7.18;;;4.88;;
45254;SDS011;30989;52.078;21.014;2022-07-06T00:23:16;11.73;;;5.95;;
45254;SDS011;30989;52.078;21.014;2022-07-06T00:25:42;6.70;;;3.75;;
45254;SDS011;30989;52.078;21.014;2022-07-06T00:28:08;9.80;;;4.95;;
45254;SDS011;30989;52.078;21.014;2022-07-06T00:30:33;6.95;;;4.53;;
45254;SDS011;30989;52.078;21.014;2022-07-06T00:32:59;6.60;;;4.88;;
45254;SDS011;30989;52.078;21.014;2022-07-06T00:35:25;5.68;;;4.07;;
45254;SDS011;30989;52.078;21.014;2022-07-06T00:37:51;7.45;;;4.10;;
45254;SDS011;30989;52.078;21.014;2022-07-06T00:40:16;4.80;;;3.58;;
45254;SDS011;30989;52.078;21.014;2022-07-06T00:42:43;6.03;;;3.70;;
45254;SDS011;30989;52.078;21.014;2022-07-06T00:45:10;4.35;;;3.60;;
45254;SDS011;30989;52.078;21.014;2022-07-06T00:47:36;6.20;;;3.72;;
45254;SDS011;30989;52.078;21.014;2022-07-06T00:50:06;6.35;;;3.50;;
45254;SDS011;30989;52.078;21.014;2022-07-06T00:52:51;9.35;;;5.10;;
45254;SDS011;30989;52.078;21.014;2022-07-06T00:55:19;7.82;;;4.93;;
45254;SDS011;30989;52.078;21.014;2022-07-06T00:57:47;8.13;;;4.90;;
45254;SDS011;30989;52.078;21.014;2022-07-06T01:00:14;6.82;;;4.40;;
45254;SDS011;30989;52.078;21.014;2022-07-06T01:02:41;5.63;;;3.55;;
45254;SDS011;30989;52.078;21.014;2022-07-06T01:05:08;6.15;;;4.63;;
45254;SDS011;30989;52.078;21.014;2022-07-06T01:07:35;5.25;;;4.18;;
45254;SDS011;30989;52.078;21.014;2022-07-06T01:10:03;11.68;;;4.57;;
45254;SDS011;30989;52.078;21.014;2022-07-06T01:12:30;9.73;;;3.83;;
45254;SDS011;30989;52.078;21.014;2022-07-06T01:14:56;7.28;;;4.90;;
45254;SDS011;30989;52.078;21.014;2022-07-06T01:17:22;6.95;;;4.07;;
45254;SDS011;30989;52.078;21.014;2022-07-06T01:19:49;5.30;;;3.90;;
45254;SDS011;30989;52.078;21.014;2022-07-06T01:22:14;5.03;;;3.53;;
45254;SDS011;30989;52.078;21.014;2022-07-06T01:24:40;6.75;;;4.38;;
45254;SDS011;30989;52.078;21.014;2022-07-06T01:27:06;7.22;;;4.20;;
45254;SDS011;30989;52.078;21.014;2022-07-06T01:29:33;6.25;;;3.58;;
45254;SDS011;30989;52.078;21.014;2022-07-06T01:31:58;7.32;;;3.58;;
45254;SDS011;30989;52.078;21.014;2022-07-06T01:34:24;5.13;;;3.30;;
45254;SDS011;30989;52.078;21.014;2022-07-06T01:36:50;5.28;;;3.17;;
45254;SDS011;30989;52.078;21.014;2022-07-06T01:39:18;4.50;;;2.92;;
45254;SDS011;30989;52.078;21.014;2022-07-06T01:41:44;5.80;;;3.35;;
45254;SDS011;30989;52.078;21.014;2022-07-06T01:44:09;3.58;;;2.83;;
45254;SDS011;30989;52.078;21.014;2022-07-06T01:46:36;7.30;;;3.35;;
45254;SDS011;30989;52.078;21.014;2022-07-06T01:49:07;7.40;;;3.20;;
45254;SDS011;30989;52.078;21.014;2022-07-06T01:51:33;5.38;;;3.38;;
45254;SDS011;30989;52.078;21.014;2022-07-06T01:53:59;5.65;;;3.10;;
45254;SDS011;30989;52.078;21.014;2022-07-06T01:56:25;5.10;;;2.97;;
45254;SDS011;30989;52.078;21.014;2022-07-06T01:58:56;7.82;;;3.38;;
45254;SDS011;30989;52.078;21.014;2022-07-06T02:01:22;5.72;;;3.47;;
45254;SDS011;30989;52.078;21.014;2022-07-06T02:03:48;6.45;;;3.78;;
45254;SDS011;30989;52.078;21.014;2022-07-06T02:06:14;5.95;;;3.47;;
45254;SDS011;30989;52.078;21.014;2022-07-06T02:08:40;6.53;;;3.42;;
45254;SDS011;30989;52.078;21.014;2022-07-06T02:11:07;6.47;;;3.47;;
45254;SDS011;30989;52.078;21.014;2022-07-06T02:13:36;6.03;;;3.30;;
45254;SDS011;30989;52.078;21.014;2022-07-06T02:16:04;5.00;;;3.28;;
45254;SDS011;30989;52.078;21.014;2022-07-06T02:18:30;17.83;;;4.18;;
45254;SDS011;30989;52.078;21.014;2022-07-06T02:20:56;8.05;;;4.13;;
45254;SDS011;30989;52.078;21.014;2022-07-06T02:23:21;8.32;;;4.00;;
45254;SDS011;30989;52.078;21.014;2022-07-06T02:25:49;9.40;;;3.75;;
45254;SDS011;30989;52.078;21.014;2022-07-06T02:28:14;6.03;;;3.42;;
45254;SDS011;30989;52.078;21.014;2022-07-06T02:30:40;6.20;;;3.63;;
45254;SDS011;30989;52.078;21.014;2022-07-06T02:33:06;5.88;;;3.42;;
45254;SDS011;30989;52.078;21.014;2022-07-06T02:35:32;4.65;;;2.90;;
45254;SDS011;30989;52.078;21.014;2022-07-06T02:37:58;6.20;;;3.30;;
45254;SDS011;30989;52.078;21.014;2022-07-06T02:40:23;9.73;;;4.13;;
45254;SDS011;30989;52.078;21.014;2022-07-06T02:42:49;6.22;;;3.42;;
45254;SDS011;30989;52.078;21.014;2022-07-06T02:45:16;9.48;;;3.60;;
45254;SDS011;30989;52.078;21.014;2022-07-06T02:47:42;7.82;;;2.47;;
45254;SDS011;30989;52.078;21.014;2022-07-06T02:50:08;6.47;;;3.88;;
45254;SDS011;30989;52.078;21.014;2022-07-06T02:52:33;5.43;;;3.22;;
45254;SDS011;30989;52.078;21.014;2022-07-06T02:55:01;5.18;;;2.97;;
45254;SDS011;30989;52.078;21.014;2022-07-06T02:57:27;6.47;;;3.22;;
45254;SDS011;30989;52.078;21.014;2022-07-06T02:59:53;7.30;;;2.97;;
45254;SDS011;30989;52.078;21.014;2022-07-06T03:02:19;5.25;;;3.17;;
45254;SDS011;30989;52.078;21.014;2022-07-06T03:04:45;3.95;;;2.70;;
45254;SDS011;30989;52.078;21.014;2022-07-06T03:07:11;4.15;;;2.65;;
45254;SDS011;30989;52.078;21.014;2022-07-06T03:09:37;4.57;;;2.70;;
45254;SDS011;30989;52.078;21.014;2022-07-06T03:12:03;5.65;;;2.88;;
45254;SDS011;30989;52.078;21.014;2022-07-06T03:14:31;4.32;;;2.58;;
45254;SDS011;30989;52.078;21.014;2022-07-06T03:16:56;4.07;;;2.63;;
45254;SDS011;30989;52.078;21.014;2022-07-06T03:19:22;4.43;;;2.83;;
45254;SDS011;30989;52.078;21.014;2022-07-06T03:21:48;4.78;;;2.72;;
45254;SDS011;30989;52.078;21.014;2022-07-06T03:24:13;4.28;;;2.70;;
45254;SDS011;30989;52.078;21.014;2022-07-06T03:26:39;6.75;;;2.60;;
45254;SDS011;30989;52.078;21.014;2022-07-06T03:29:05;7.03;;;3.67;;
45254;SDS011;30989;52.078;21.014;2022-07-06T03:31:30;5.38;;;2.92;;
45254;SDS011;30989;52.078;21.014;2022-07-06T03:33:57;7.53;;;3.05;;
45254;SDS011;30989;52.078;21.014;2022-07-06T03:36:23;4.78;;;2.22;;
45254;SDS011;30989;52.078;21.014;2022-07-06T03:38:48;5.28;;;2.33;;
45254;SDS011;30989;52.078;21.014;2022-07-06T03:41:14;3.42;;;2.10;;
45254;SDS011;30989;52.078;21.014;2022-07-06T03:43:40;3.60;;;2.22;;
45254;SDS011;30989;52.078;21.014;2022-07-06T03:46:06;5.13;;;2.20;;
45254;SDS011;30989;52.078;21.014;2022-07-06T03:48:32;5.65;;;2.55;;
45254;SDS011;30989;52.078;21.014;2022-07-06T03:50:57;3.70;;;2.42;;
45254;SDS011;30989;52.078;21.014;2022-07-06T03:53:23;3.50;;;1.70;;
45254;SDS011;30989;52.078;21.014;2022-07-06T03:55:49;4.32;;;1.77;;
45254;SDS011;30989;52.078;21.014;2022-07-06T03:58:34;4.32;;;1.98;;
45254;SDS011;30989;52.078;21.014;2022-07-06T04:01:00;8.48;;;2.33;;
45254;SDS011;30989;52.078;21.014;2022-07-06T04:03:25;5.63;;;2.10;;
45254;SDS011;30989;52.078;21.014;2022-07-06T04:05:52;3.45;;;1.48;;
45254;SDS011;30989;52.078;21.014;2022-07-06T04:08:18;2.58;;;1.52;;
45254;SDS011;30989;52.078;21.014;2022-07-06T04:10:50;2.90;;;1.58;;
45254;SDS011;30989;52.078;21.014;2022-07-06T04:13:16;3.30;;;2.33;;
45254;SDS011;30989;52.078;21.014;2022-07-06T04:15:41;3.80;;;1.90;;
45254;SDS011;30989;52.078;21.014;2022-07-06T04:18:07;6.05;;;2.05;;
45254;SDS011;30989;52.078;21.014;2022-07-06T04:20:39;3.92;;;1.90;;
45254;SDS011;30989;52.078;21.014;2022-07-06T04:23:05;3.40;;;1.92;;
45254;SDS011;30989;52.078;21.014;2022-07-06T04:25:30;3.63;;;1.67;;
45254;SDS011;30989;52.078;21.014;2022-07-06T04:27:58;4.03;;;1.80;;
45254;SDS011;30989;52.078;21.014;2022-07-06T04:30:25;4.72;;;2.08;;
45254;SDS011;30989;52.078;21.014;2022-07-06T04:32:51;4.05;;;2.00;;
45254;SDS011;30989;52.078;21.014;2022-07-06T04:35:17;3.92;;;1.95;;
45254;SDS011;30989;52.078;21.014;2022-07-06T04:37:45;5.60;;;2.42;;
45254;SDS011;30989;52.078;21.014;2022-07-06T04:40:12;4.13;;;1.80;;
45254;SDS011;30989;52.078;21.014;2022-07-06T04:42:39;2.33;;;1.50;;
45254;SDS011;30989;52.078;21.014;2022-07-06T04:45:05;4.13;;;1.90;;
45254;SDS011;30989;52.078;21.014;2022-07-06T04:47:31;3.85;;;1.50;;
45254;SDS011;30989;52.078;21.014;2022-07-06T04:49:56;11.02;;;4.53;;
45254;SDS011;30989;52.078;21.014;2022-07-06T04:52:22;5.05;;;2.50;;
45254;SDS011;30989;52.078;21.014;2022-07-06T04:54:47;2.53;;;1.40;;
45254;SDS011;30989;52.078;21.014;2022-07-06T04:57:13;3.00;;;1.67;;
45254;SDS011;30989;52.078;21.014;2022-07-06T04:59:40;4.00;;;1.80;;
45254;SDS011;30989;52.078;21.014;2022-07-06T05:02:06;3.70;;;1.60;;
45254;SDS011;30989;52.078;21.014;2022-07-06T05:04:32;3.97;;;2.10;;
45254;SDS011;30989;52.078;21.014;2022-07-06T05:06:58;3.95;;;1.88;;
45254;SDS011;30989;52.078;21.014;2022-07-06T05:09:24;6.25;;;2.10;;
45254;SDS011;30989;52.078;21.014;2022-07-06T05:11:49;4.35;;;2.17;;
45254;SDS011;30989;52.078;21.014;2022-07-06T05:14:16;7.22;;;2.25;;
45254;SDS011;30989;52.078;21.014;2022-07-06T05:16:43;4.00;;;1.95;;
45254;SDS011;30989;52.078;21.014;2022-07-06T05:19:08;3.83;;;1.85;;
45254;SDS011;30989;52.078;21.014;2022-07-06T05:21:34;7.22;;;2.85;;
45254;SDS011;30989;52.078;21.014;2022-07-06T05:24:00;3.97;;;1.45;;
45254;SDS011;30989;52.078;21.014;2022-07-06T05:26:26;3.05;;;1.40;;
45254;SDS011;30989;52.078;21.014;2022-07-06T05:28:52;3.47;;;1.70;;
45254;SDS011;30989;52.078;21.014;2022-07-06T05:31:20;3.63;;;1.58;;
45254;SDS011;30989;52.078;21.014;2022-07-06T05:33:46;4.80;;;1.83;;
45254;SDS011;30989;52.078;21.014;2022-07-06T05:36:12;2.50;;;1.45;;
45254;SDS011;30989;52.078;21.014;2022-07-06T05:38:37;4.68;;;2.10;;
45254;SDS011;30989;52.078;21.014;2022-07-06T05:41:03;4.47;;;1.60;;
45254;SDS011;30989;52.078;21.014;2022-07-06T05:43:31;3.50;;;1.92;;
45254;SDS011;30989;52.078;21.014;2022-07-06T05:45:59;3.85;;;1.40;;
45254;SDS011;30989;52.078;21.014;2022-07-06T05:48:28;3.72;;;1.42;;
45254;SDS011;30989;52.078;21.014;2022-07-06T05:51:13;4.82;;;1.63;;
45254;SDS011;30989;52.078;21.014;2022-07-06T05:53:41;3.75;;;1.30;;
45254;SDS011;30989;52.078;21.014;2022-07-06T05:56:06;3.17;;;1.73;;
45254;SDS011;30989;52.078;21.014;2022-07-06T05:58:33;3.75;;;1.73;;
45254;SDS011;30989;52.078;21.014;2022-07-06T06:01:00;5.05;;;1.48;;
45254;SDS011;30989;52.078;21.014;2022-07-06T06:03:25;2.50;;;1.50;;
45254;SDS011;30989;52.078;21.014;2022-07-06T06:05:51;2.95;;;1.90;;
45254;SDS011;30989;52.078;21.014;2022-07-06T06:08:19;3.58;;;2.00;;
45254;SDS011;30989;52.078;21.014;2022-07-06T06:10:45;5.25;;;1.73;;
45254;SDS011;30989;52.078;21.014;2022-07-06T06:13:14;4.20;;;1.83;;
45254;SDS011;30989;52.078;21.014;2022-07-06T06:15:40;4.55;;;1.70;;
45254;SDS011;30989;52.078;21.014;2022-07-06T06:18:06;2.67;;;1.80;;
45254;SDS011;30989;52.078;21.014;2022-07-06T06:20:34;3.33;;;1.77;;
45254;SDS011;30989;52.078;21.014;2022-07-06T06:23:00;3.63;;;1.85;;
45254;SDS011;30989;52.078;21.014;2022-07-06T06:25:30;2.35;;;1.30;;
45254;SDS011;30989;52.078;21.014;2022-07-06T06:28:00;3.53;;;1.95;;
45254;SDS011;30989;52.078;21.014;2022-07-06T06:30:27;3.55;;;1.55;;
45254;SDS011;30989;52.078;21.014;2022-07-06T06:33:10;5.45;;;1.90;;
45254;SDS011;30989;52.078;21.014;2022-07-06T06:35:44;3.78;;;1.80;;
45254;SDS011;30989;52.078;21.014;2022-07-06T06:38:14;2.58;;;1.83;;
45254;SDS011;30989;52.078;21.014;2022-07-06T06:40:43;5.22;;;2.45;;
45254;SDS011;30989;52.078;21.014;2022-07-06T06:43:08;3.60;;;1.77;;
45254;SDS011;30989;52.078;21.014;2022-07-06T06:45:41;3.63;;;2.15;;
45254;SDS011;30989;52.078;21.014;2022-07-06T06:48:08;4.70;;;1.80;;
45254;SDS011;30989;52.078;21.014;2022-07-06T06:50:37;3.20;;;1.75;;
45254;SDS011;30989;52.078;21.014;2022-07-06T06:53:02;2.83;;;1.70;;
45254;SDS011;30989;52.078;21.014;2022-07-06T06:55:28;4.57;;;1.83;;
45254;SDS011;30989;52.078;21.014;2022-07-06T06:57:54;5.50;;;2.05;;
45254;SDS011;30989;52.078;21.014;2022-07-06T07:00:19;3.55;;;2.05;;
45254;SDS011;30989;52.078;21.014;2022-07-06T07:02:45;4.75;;;3.00;;
45254;SDS011;30989;52.078;21.014;2022-07-06T07:05:11;8.75;;;5.13;;
45254;SDS011;30989;52.078;21.014;2022-07-06T07:07:37;7.82;;;3.90;;
45254;SDS011;30989;52.078;21.014;2022-07-06T07:10:04;7.45;;;2.90;;
45254;SDS011;30989;52.078;21.014;2022-07-06T07:12:30;5.82;;;2.85;;
45254;SDS011;30989;52.078;21.014;2022-07-06T07:14:56;8.60;;;2.80;;
45254;SDS011;30989;52.078;21.014;2022-07-06T07:17:21;7.85;;;3.17;;
45254;SDS011;30989;52.078;21.014;2022-07-06T07:19:47;6.95;;;3.33;;
45254;SDS011;30989;52.078;21.014;2022-07-06T07:22:12;5.78;;;3.65;;
45254;SDS011;30989;52.078;21.014;2022-07-06T07:24:38;3.97;;;2.50;;
45254;SDS011;30989;52.078;21.014;2022-07-06T07:27:03;5.45;;;3.08;;
45254;SDS011;30989;52.078;21.014;2022-07-06T07:29:30;5.28;;;3.10;;
45254;SDS011;30989;52.078;21.014;2022-07-06T07:31:56;5.05;;;3.28;;
45254;SDS011;30989;52.078;21.014;2022-07-06T07:34:21;7.65;;;3.00;;
45254;SDS011;30989;52.078;21.014;2022-07-06T07:36:47;5.88;;;3.20;;
45254;SDS011;30989;52.078;21.014;2022-07-06T07:39:13;4.03;;;2.38;;
45254;SDS011;30989;52.078;21.014;2022-07-06T07:41:38;5.65;;;2.42;;
45254;SDS011;30989;52.078;21.014;2022-07-06T07:44:04;6.05;;;2.17;;
45254;SDS011;30989;52.078;21.014;2022-07-06T07:46:30;3.40;;;2.03;;
45254;SDS011;30989;52.078;21.014;2022-07-06T07:48:55;5.90;;;2.50;;
45254;SDS011;30989;52.078;21.014;2022-07-06T07:51:24;4.47;;;2.30;;
45254;SDS011;30989;52.078;21.014;2022-07-06T07:53:49;3.00;;;2.00;;
45254;SDS011;30989;52.078;21.014;2022-07-06T07:56:14;7.10;;;2.53;;
45254;SDS011;30989;52.078;21.014;2022-07-06T07:58:40;4.63;;;2.10;;
45254;SDS011;30989;52.078;21.014;2022-07-06T08:01:06;9.43;;;2.58;;
45254;SDS011;30989;52.078;21.014;2022-07-06T08:03:35;8.38;;;3.47;;
45254;SDS011;30989;52.078;21.014;2022-07-06T08:06:04;12.30;;;3.30;;
45254;SDS011;30989;52.078;21.014;2022-07-06T08:08:29;6.57;;;2.28;;
45254;SDS011;30989;52.078;21.014;2022-07-06T08:10:55;6.80;;;2.60;;
45254;SDS011;30989;52.078;21.014;2022-07-06T08:13:20;4.30;;;2.25;;
45254;SDS011;30989;52.078;21.014;2022-07-06T08:15:46;5.25;;;2.10;;
45254;SDS011;30989;52.078;21.014;2022-07-06T08:18:11;10.57;;;2.83;;
45254;SDS011;30989;52.078;21.014;2022-07-06T08:20:37;7.70;;;2.60;;
45254;SDS011;30989;52.078;21.014;2022-07-06T08:23:03;10.35;;;3.03;;
45254;SDS011;30989;52.078;21.014;2022-07-06T08:25:29;7.80;;;2.97;;
45254;SDS011;30989;52.078;21.014;2022-07-06T08:27:55;11.10;;;2.90;;
45254;SDS011;30989;52.078;21.014;2022-07-06T08:30:21;7.35;;;2.63;;
45254;SDS011;30989;52.078;21.014;2022-07-06T08:32:46;5.95;;;2.60;;
45254;SDS011;30989;52.078;21.014;2022-07-06T08:35:12;5.53;;;2.13;;
45254;SDS011;30989;52.078;21.014;2022-07-06T08:37:38;7.00;;;2.15;;
45254;SDS011;30989;52.078;21.014;2022-07-06T08:40:04;5.85;;;1.63;;
45254;SDS011;30989;52.078;21.014;2022-07-06T08:42:32;4.15;;;1.63;;
45254;SDS011;30989;52.078;21.014;2022-07-06T08:45:00;2.70;;;1.40;;
45254;SDS011;30989;52.078;21.014;2022-07-06T08:47:27;2.85;;;1.38;;
45254;SDS011;30989;52.078;21.014;2022-07-06T08:49:53;2.80;;;1.30;;
45254;SDS011;30989;52.078;21.014;2022-07-06T08:52:19;4.95;;;1.58;;
45254;SDS011;30989;52.078;21.014;2022-07-06T08:54:46;4.82;;;1.48;;
45254;SDS011;30989;52.078;21.014;2022-07-06T08:57:11;6.38;;;1.65;;
45254;SDS011;30989;52.078;21.014;2022-07-06T08:59:38;3.78;;;1.42;;
45254;SDS011;30989;52.078;21.014;2022-07-06T09:02:04;3.10;;;1.20;;
45254;SDS011;30989;52.078;21.014;2022-07-06T09:04:32;2.45;;;1.30;;
45254;SDS011;30989;52.078;21.014;2022-07-06T09:06:58;5.60;;;1.13;;
45254;SDS011;30989;52.078;21.014;2022-07-06T09:09:24;3.13;;;1.20;;
45254;SDS011;30989;52.078;21.014;2022-07-06T09:11:50;1.33;;;0.68;;
45254;SDS011;30989;52.078;21.014;2022-07-06T09:14:16;2.88;;;0.90;;
45254;SDS011;30989;52.078;21.014;2022-07-06T09:16:44;2.35;;;0.90;;
45254;SDS011;30989;52.078;21.014;2022-07-06T09:19:11;4.10;;;0.90;;
45254;SDS011;30989;52.078;21.014;2022-07-06T09:21:37;2.60;;;1.30;;
45254;SDS011;30989;52.078;21.014;2022-07-06T09:24:05;4.47;;;1.05;;
45254;SDS011;30989;52.078;21.014;2022-07-06T09:26:33;4.13;;;0.90;;
45254;SDS011;30989;52.078;21.014;2022-07-06T09:28:59;4.60;;;1.10;;
45254;SDS011;30989;52.078;21.014;2022-07-06T09:31:25;2.70;;;0.80;;
45254;SDS011;30989;52.078;21.014;2022-07-06T09:33:55;4.10;;;1.20;;
45254;SDS011;30989;52.078;21.014;2022-07-06T09:36:37;3.70;;;0.98;;
45254;SDS011;30989;52.078;21.014;2022-07-06T09:41:48;1.33;;;0.60;;
45254;SDS011;30989;52.078;21.014;2022-07-06T09:44:18;2.30;;;0.63;;
45254;SDS011;30989;52.078;21.014;2022-07-06T09:46:47;2.25;;;0.90;;
45254;SDS011;30989;52.078;21.014;2022-07-06T09:49:16;5.60;;;1.65;;
45254;SDS011;30989;52.078;21.014;2022-07-06T09:51:43;4.75;;;1.15;;
45254;SDS011;30989;52.078;21.014;2022-07-06T09:54:12;2.35;;;1.10;;
45254;SDS011;30989;52.078;21.014;2022-07-06T09:56:39;3.15;;;0.93;;
45254;SDS011;30989;52.078;21.014;2022-07-06T09:59:12;2.53;;;0.80;;
45254;SDS011;30989;52.078;21.014;2022-07-06T10:01:42;4.75;;;1.40;;
45254;SDS011;30989;52.078;21.014;2022-07-06T10:04:12;3.88;;;1.05;;
45254;SDS011;30989;52.078;21.014;2022-07-06T10:06:39;1.67;;;0.75;;
45254;SDS011;30989;52.078;21.014;2022-07-06T10:09:06;5.05;;;0.60;;
45254;SDS011;30989;52.078;21.014;2022-07-06T10:11:33;2.17;;;0.60;;
45254;SDS011;30989;52.078;21.014;2022-07-06T10:14:03;4.00;;;0.70;;
45254;SDS011;30989;52.078;21.014;2022-07-06T10:16:30;3.30;;;0.90;;
45254;SDS011;30989;52.078;21.014;2022-07-06T10:18:56;2.97;;;0.70;;
45254;SDS011;30989;52.078;21.014;2022-07-06T10:21:24;1.02;;;0.52;;
45254;SDS011;30989;52.078;21.014;2022-07-06T10:23:50;2.95;;;0.60;;
45254;SDS011;30989;52.078;21.014;2022-07-06T10:26:17;2.42;;;0.70;;
45254;SDS011;30989;52.078;21.014;2022-07-06T10:28:43;3.88;;;0.63;;
45254;SDS011;30989;52.078;21.014;2022-07-06T10:31:11;0.68;;;0.40;;
45254;SDS011;30989;52.078;21.014;2022-07-06T10:33:38;1.70;;;0.60;;
45254;SDS011;30989;52.078;21.014;2022-07-06T10:36:05;1.65;;;0.50;;
45254;SDS011;30989;52.078;21.014;2022-07-06T10:38:32;3.10;;;0.70;;
45254;SDS011;30989;52.078;21.014;2022-07-06T10:41:07;3.25;;;0.50;;
45254;SDS011;30989;52.078;21.014;2022-07-06T10:43:35;3.67;;;1.20;;
45254;SDS011;30989;52.078;21.014;2022-07-06T10:48:43;1.05;;;0.60;;
45254;SDS011;30989;52.078;21.014;2022-07-06T10:51:14;2.00;;;0.60;;
45254;SDS011;30989;52.078;21.014;2022-07-06T10:53:58;0.98;;;0.57;;
45254;SDS011;30989;52.078;21.014;2022-07-06T10:59:03;2.33;;;0.63;;
45254;SDS011;30989;52.078;21.014;2022-07-06T11:04:38;7.65;;;1.70;;
45254;SDS011;30989;52.078;21.014;2022-07-06T11:07:08;3.00;;;0.57;;
45254;SDS011;30989;52.078;21.014;2022-07-06T11:09:37;3.05;;;0.70;;
45254;SDS011;30989;52.078;21.014;2022-07-06T11:12:19;4.60;;;1.10;;
45254;SDS011;30989;52.078;21.014;2022-07-06T11:14:46;3.40;;;0.80;;
45254;SDS011;30989;52.078;21.014;2022-07-06T11:17:13;6.57;;;0.70;;
45254;SDS011;30989;52.078;21.014;2022-07-06T11:22:21;4.13;;;1.25;;
45254;SDS011;30989;52.078;21.014;2022-07-06T11:24:49;1.95;;;0.80;;
45254;SDS011;30989;52.078;21.014;2022-07-06T11:27:17;1.77;;;0.70;;
45254;SDS011;30989;52.078;21.014;2022-07-06T11:29:45;1.20;;;0.40;;
45254;SDS011;30989;52.078;21.014;2022-07-06T11:32:11;2.20;;;0.60;;
45254;SDS011;30989;52.078;21.014;2022-07-06T11:34:42;2.40;;;0.60;;
45254;SDS011;30989;52.078;21.014;2022-07-06T11:37:15;3.75;;;0.60;;
45254;SDS011;30989;52.078;21.014;2022-07-06T11:39:43;1.45;;;0.60;;
45254;SDS011;30989;52.078;21.014;2022-07-06T11:42:10;1.48;;;0.43;;
45254;SDS011;30989;52.078;21.014;2022-07-06T11:44:41;0.80;;;0.45;;
45254;SDS011;30989;52.078;21.014;2022-07-06T11:47:07;2.72;;;0.40;;
45254;SDS011;30989;52.078;21.014;2022-07-06T11:49:34;2.05;;;0.40;;
45254;SDS011;30989;52.078;21.014;2022-07-06T11:52:07;0.73;;;0.30;;
45254;SDS011;30989;52.078;21.014;2022-07-06T11:54:34;4.97;;;0.60;;
45254;SDS011;30989;52.078;21.014;2022-07-06T11:57:00;0.63;;;0.35;;
45254;SDS011;30989;52.078;21.014;2022-07-06T11:59:27;2.45;;;0.80;;
45254;SDS011;30989;52.078;21.014;2022-07-06T12:01:57;2.25;;;0.52;;
45254;SDS011;30989;52.078;21.014;2022-07-06T12:04:30;1.23;;;0.50;;
45254;SDS011;30989;52.078;21.014;2022-07-06T12:07:04;3.65;;;0.60;;
45254;SDS011;30989;52.078;21.014;2022-07-06T12:09:36;3.38;;;0.70;;
45254;SDS011;30989;52.078;21.014;2022-07-06T12:12:03;2.03;;;1.03;;
45254;SDS011;30989;52.078;21.014;2022-07-06T12:14:30;1.23;;;0.43;;
45254;SDS011;30989;52.078;21.014;2022-07-06T12:17:00;0.68;;;0.35;;
45254;SDS011;30989;52.078;21.014;2022-07-06T12:21:53;1.48;;;0.50;;
45254;SDS011;30989;52.078;21.014;2022-07-06T12:24:26;0.77;;;0.40;;
45254;SDS011;30989;52.078;21.014;2022-07-06T12:26:53;1.38;;;0.47;;
45254;SDS011;30989;52.078;21.014;2022-07-06T12:29:20;2.28;;;0.43;;
45254;SDS011;30989;52.078;21.014;2022-07-06T12:34:15;2.63;;;0.32;;
45254;SDS011;30989;52.078;21.014;2022-07-06T12:36:45;1.10;;;0.50;;
45254;SDS011;30989;52.078;21.014;2022-07-06T12:39:15;3.37;;;0.43;;
45254;SDS011;30989;52.078;21.014;2022-07-06T12:41:47;1.58;;;0.63;;
45254;SDS011;30989;52.078;21.014;2022-07-06T12:44:17;2.67;;;0.40;;
45254;SDS011;30989;52.078;21.014;2022-07-06T12:46:44;7.13;;;0.57;;
45254;SDS011;30989;52.078;21.014;2022-07-06T12:49:14;2.28;;;0.35;;
45254;SDS011;30989;52.078;21.014;2022-07-06T12:52:30;1.67;;;0.60;;
45254;SDS011;30989;52.078;21.014;2022-07-06T12:54:41;2.30;;;0.55;;
45254;SDS011;30989;52.078;21.014;2022-07-06T12:57:13;1.33;;;0.68;;
45254;SDS011;30989;52.078;21.014;2022-07-06T13:02:23;8.18;;;1.13;;
45254;SDS011;30989;52.078;21.014;2022-07-06T13:04:54;1.55;;;0.40;;
45254;SDS011;30989;52.078;21.014;2022-07-06T13:07:44;1.85;;;0.40;;
45254;SDS011;30989;52.078;21.014;2022-07-06T13:12:37;0.88;;;0.30;;
45254;SDS011;30989;52.078;21.014;2022-07-06T13:15:04;1.50;;;0.60;;
45254;SDS011;30989;52.078;21.014;2022-07-06T13:17:31;2.85;;;0.60;;
45254;SDS011;30989;52.078;21.014;2022-07-06T13:19:58;2.95;;;0.80;;
45254;SDS011;30989;52.078;21.014;2022-07-06T13:22:24;1.50;;;0.63;;
45254;SDS011;30989;52.078;21.014;2022-07-06T13:24:50;4.90;;;0.80;;
45254;SDS011;30989;52.078;21.014;2022-07-06T13:27:16;9.20;;;0.77;;
45254;SDS011;30989;52.078;21.014;2022-07-06T13:29:44;3.50;;;0.80;;
45254;SDS011;30989;52.078;21.014;2022-07-06T13:32:10;4.18;;;0.50;;
45254;SDS011;30989;52.078;21.014;2022-07-06T13:34:35;3.08;;;0.60;;
45254;SDS011;30989;52.078;21.014;2022-07-06T13:37:01;3.03;;;0.75;;
45254;SDS011;30989;52.078;21.014;2022-07-06T13:39:28;2.83;;;0.63;;
45254;SDS011;30989;52.078;21.014;2022-07-06T13:41:54;1.77;;;0.75;;
45254;SDS011;30989;52.078;21.014;2022-07-06T13:44:20;4.78;;;0.88;;
45254;SDS011;30989;52.078;21.014;2022-07-06T13:46:45;3.85;;;0.70;;
45254;SDS011;30989;52.078;21.014;2022-07-06T13:49:11;0.75;;;0.50;;
45254;SDS011;30989;52.078;21.014;2022-07-06T13:51:40;2.05;;;0.57;;
45254;SDS011;30989;52.078;21.014;2022-07-06T13:54:06;2.13;;;0.73;;
45254;SDS011;30989;52.078;21.014;2022-07-06T13:56:31;2.45;;;0.90;;
45254;SDS011;30989;52.078;21.014;2022-07-06T13:58:58;3.17;;;0.80;;
45254;SDS011;30989;52.078;21.014;2022-07-06T14:01:24;2.13;;;0.70;;
45254;SDS011;30989;52.078;21.014;2022-07-06T14:03:49;2.47;;;0.80;;
45254;SDS011;30989;52.078;21.014;2022-07-06T14:06:16;4.15;;;0.70;;
45254;SDS011;30989;52.078;21.014;2022-07-06T14:08:51;7.97;;;2.10;;
45254;SDS011;30989;52.078;21.014;2022-07-06T14:11:17;2.00;;;0.77;;
45254;SDS011;30989;52.078;21.014;2022-07-06T14:13:43;2.08;;;0.63;;
45254;SDS011;30989;52.078;21.014;2022-07-06T14:16:08;2.25;;;0.60;;
45254;SDS011;30989;52.078;21.014;2022-07-06T14:18:34;1.73;;;0.50;;
45254;SDS011;30989;52.078;21.014;2022-07-06T14:21:00;1.27;;;0.50;;
45254;SDS011;30989;52.078;21.014;2022-07-06T14:23:28;3.90;;;1.38;;
45254;SDS011;30989;52.078;21.014;2022-07-06T14:25:54;2.40;;;0.50;;
45254;SDS011;30989;52.078;21.014;2022-07-06T14:28:20;4.50;;;0.68;;
45254;SDS011;30989;52.078;21.014;2022-07-06T14:30:46;2.25;;;0.70;;
45254;SDS011;30989;52.078;21.014;2022-07-06T14:33:12;2.08;;;0.60;;
45254;SDS011;30989;52.078;21.014;2022-07-06T14:35:40;1.48;;;0.60;;
45254;SDS011;30989;52.078;21.014;2022-07-06T14:38:07;3.13;;;0.80;;
45254;SDS011;30989;52.078;21.014;2022-07-06T14:40:34;3.78;;;0.70;;
45254;SDS011;30989;52.078;21.014;2022-07-06T14:43:00;2.63;;;0.45;;
45254;SDS011;30989;52.078;21.014;2022-07-06T14:45:26;2.28;;;0.60;;
45254;SDS011;30989;52.078;21.014;2022-07-06T14:47:52;6.78;;;0.80;;
45254;SDS011;30989;52.078;21.014;2022-07-06T14:50:19;1.27;;;0.50;;
45254;SDS011;30989;52.078;21.014;2022-07-06T14:52:45;2.53;;;0.90;;
45254;SDS011;30989;52.078;21.014;2022-07-06T14:55:10;6.65;;;0.75;;
45254;SDS011;30989;52.078;21.014;2022-07-06T14:57:36;3.00;;;0.77;;